Time;durP1;ratioP1;P1;durP2;ratioP2;P2;SDS_P1;SDS_P2;PMS_P1;PMS_P2;Temp;Humidity;BMP_temperature;BMP_pressure;BME280_temperature;BME280_humidity;BME280_pressure;Samples;Min_cycle;Max_cycle;Signal;HPM_P1;HPM_P2
2021/10/25 00:01:30;;;;;;;4.32;3.03;;;;;;;;;;5034535;28;20192;-82
2021/10/25 00:03:58;;;;;;;1.70;1.60;;;;;;;;;;5035009;28;20198;-82
2021/10/25 00:06:27;;;;;;;2.22;2.03;;;;;;;;;;5034651;28;20201;-83
2021/10/25 00:12:36;;;;;;;4.85;2.88;;;;;;;;;;5035126;28;20216;-83
2021/10/25 00:15:05;;;;;;;3.60;1.95;;;;;;;;;;5034888;28;20255;-83
2021/10/25 00:17:32;;;;;;;1.77;1.65;;;;;;;;;;5034170;28;20198;-83
2021/10/25 00:20:00;;;;;;;1.67;1.58;;;;;;;;;;5034913;28;20222;-83
2021/10/25 00:22:28;;;;;;;1.77;1.67;;;;;;;;;;5034739;28;20176;-83
2021/10/25 00:24:56;;;;;;;1.83;1.73;;;;;;;;;;5035103;28;20205;-83
2021/10/25 00:27:24;;;;;;;1.70;1.60;;;;;;;;;;5035480;28;20205;-83
2021/10/25 00:29:51;;;;;;;2.53;1.80;;;;;;;;;;5038055;28;20586;-82
2021/10/25 00:32:19;;;;;;;1.52;1.40;;;;;;;;;;5033877;28;20205;-82
2021/10/25 00:34:46;;;;;;;1.80;1.70;;;;;;;;;;5033055;28;20226;-82
2021/10/25 00:37:14;;;;;;;1.50;1.40;;;;;;;;;;5033641;28;20202;-83
2021/10/25 00:39:43;;;;;;;1.40;1.30;;;;;;;;;;5032985;28;20218;-82
2021/10/25 00:42:10;;;;;;;1.30;1.20;;;;;;;;;;5033400;28;20659;-82
2021/10/25 00:44:37;;;;;;;2.22;1.50;;;;;;;;;;5032642;28;20199;-83
2021/10/25 00:47:05;;;;;;;1.30;1.30;;;;;;;;;;5033404;28;20190;-82
2021/10/25 00:49:33;;;;;;;2.95;1.83;;;;;;;;;;5032659;28;20593;-82
2021/10/25 00:52:00;;;;;;;3.40;1.65;;;;;;;;;;5033012;28;20656;-82
2021/10/25 00:54:27;;;;;;;2.42;2.05;;;;;;;;;;5033295;28;20182;-83
2021/10/25 00:56:57;;;;;;;1.70;1.60;;;;;;;;;;5033123;28;20218;-83
2021/10/25 00:59:25;;;;;;;2.35;1.33;;;;;;;;;;5032837;28;20222;-83
2021/10/25 01:01:53;;;;;;;1.67;1.40;;;;;;;;;;5032740;28;20198;-82
2021/10/25 01:04:20;;;;;;;1.70;1.60;;;;;;;;;;5033217;28;20187;-82
2021/10/25 01:06:48;;;;;;;2.05;1.95;;;;;;;;;;5032985;28;20229;-82
2021/10/25 01:09:17;;;;;;;1.55;1.45;;;;;;;;;;5032996;28;20240;-84
2021/10/25 01:11:46;;;;;;;1.48;1.38;;;;;;;;;;5032869;28;20195;-82
2021/10/25 01:14:15;;;;;;;2.13;1.48;;;;;;;;;;5032968;27;20206;-82
2021/10/25 01:16:42;;;;;;;0.95;0.95;;;;;;;;;;5032584;28;20206;-83
2021/10/25 01:19:10;;;;;;;1.40;1.30;;;;;;;;;;5032580;28;20223;-83
2021/10/25 01:21:39;;;;;;;1.33;1.23;;;;;;;;;;5033129;28;20194;-83
2021/10/25 01:24:06;;;;;;;1.67;1.25;;;;;;;;;;5032352;28;20227;-83
2021/10/25 01:26:34;;;;;;;1.70;1.60;;;;;;;;;;5032397;28;20207;-83
2021/10/25 01:29:01;;;;;;;1.92;1.63;;;;;;;;;;5032477;28;20227;-83
2021/10/25 01:31:29;;;;;;;1.63;1.52;;;;;;;;;;5032003;28;20203;-83
2021/10/25 01:33:57;;;;;;;1.30;1.20;;;;;;;;;;5032030;28;20653;-83
2021/10/25 01:36:25;;;;;;;2.13;1.98;;;;;;;;;;5032469;28;20214;-83
2021/10/25 01:38:53;;;;;;;2.05;1.90;;;;;;;;;;5032095;28;20218;-83
2021/10/25 01:41:22;;;;;;;1.80;1.70;;;;;;;;;;5032588;28;20194;-84
2021/10/25 01:43:49;;;;;;;1.45;1.35;;;;;;;;;;5031978;28;20195;-83
2021/10/25 01:46:17;;;;;;;2.20;2.00;;;;;;;;;;5032383;28;20194;-84
2021/10/25 01:48:44;;;;;;;1.50;1.40;;;;;;;;;;5032176;28;20226;-83
2021/10/25 01:51:12;;;;;;;2.15;1.70;;;;;;;;;;5032377;28;20213;-83
2021/10/25 01:53:39;;;;;;;1.60;1.50;;;;;;;;;;5032141;28;20214;-83
2021/10/25 01:56:09;;;;;;;1.50;1.40;;;;;;;;;;5032088;28;20228;-84
2021/10/25 01:58:36;;;;;;;1.73;1.63;;;;;;;;;;5031991;28;20222;-83
2021/10/25 02:01:05;;;;;;;1.70;1.60;;;;;;;;;;5030821;28;20187;-84
2021/10/25 02:03:33;;;;;;;1.60;1.45;;;;;;;;;;5032157;28;20702;-83
2021/10/25 02:06:01;;;;;;;1.75;1.63;;;;;;;;;;5031609;28;20202;-84
2021/10/25 02:08:28;;;;;;;1.50;1.40;;;;;;;;;;5032241;28;20218;-84
2021/10/25 02:10:56;;;;;;;2.03;1.42;;;;;;;;;;5031688;28;20203;-83
2021/10/25 02:13:25;;;;;;;1.30;1.20;;;;;;;;;;5032185;28;20203;-84
2021/10/25 02:15:53;;;;;;;2.10;1.90;;;;;;;;;;5032010;28;20230;-84
2021/10/25 02:18:22;;;;;;;2.45;1.38;;;;;;;;;;5031346;28;20666;-83
2021/10/25 02:20:50;;;;;;;1.50;1.40;;;;;;;;;;5031008;28;20625;-83
2021/10/25 02:23:18;;;;;;;1.30;1.20;;;;;;;;;;5030927;28;20230;-83
2021/10/25 02:25:48;;;;;;;1.33;1.23;;;;;;;;;;5031080;28;20198;-84
2021/10/25 02:28:15;;;;;;;1.35;1.20;;;;;;;;;;5030465;28;20205;-83
2021/10/25 02:30:44;;;;;;;1.52;1.38;;;;;;;;;;5030757;28;20213;-83
2021/10/25 02:33:11;;;;;;;1.70;1.30;;;;;;;;;;5030667;28;20620;-83
2021/10/25 02:35:39;;;;;;;1.30;1.20;;;;;;;;;;5030041;28;20207;-83
2021/10/25 02:38:06;;;;;;;2.92;2.42;;;;;;;;;;5030332;28;20557;-84
2021/10/25 02:40:34;;;;;;;1.60;1.50;;;;;;;;;;5030319;28;20201;-83
2021/10/25 02:43:01;;;;;;;2.05;1.83;;;;;;;;;;5030735;28;20182;-83
2021/10/25 03:19:09;;;;;;;2.33;2.13;;;;;;;;;;5062534;28;21160;-85
2021/10/25 03:21:37;;;;;;;2.13;1.92;;;;;;;;;;5065702;27;20207;-83
2021/10/25 03:24:05;;;;;;;3.05;2.65;;;;;;;;;;5066197;28;20189;-83
2021/10/25 03:26:32;;;;;;;2.78;1.67;;;;;;;;;;5097653;22;20232;-84
2021/10/25 03:29:00;;;;;;;2.20;2.00;;;;;;;;;;5088536;28;20200;-84
2021/10/25 03:31:28;;;;;;;1.92;1.83;;;;;;;;;;5088519;28;20188;-83
2021/10/25 03:33:55;;;;;;;5.15;2.60;;;;;;;;;;5089071;28;20222;-84
2021/10/25 03:36:28;;;;;;;3.08;2.78;;;;;;;;;;5089854;28;20246;-84
2021/10/25 03:38:57;;;;;;;3.50;2.97;;;;;;;;;;5092292;28;20217;-83
2021/10/25 03:41:29;;;;;;;2.90;2.05;;;;;;;;;;5090820;28;20250;-84
2021/10/25 03:44:00;;;;;;;3.08;2.88;;;;;;;;;;5091770;28;20275;-84
2021/10/25 03:46:34;;;;;;;2.47;2.35;;;;;;;;;;5090868;28;20692;-83
2021/10/25 03:49:07;;;;;;;2.70;2.50;;;;;;;;;;5094688;28;20722;-82
2021/10/25 03:51:38;;;;;;;3.38;3.17;;;;;;;;;;5093445;28;20578;-83
2021/10/25 03:54:19;;;;;;;2.97;2.70;;;;;;;;;;5100809;28;20193;-83
2021/10/25 03:57:00;;;;;;;6.13;3.80;;;;;;;;;;5089431;28;20227;-83
2021/10/25 03:59:37;;;;;;;2.50;2.30;;;;;;;;;;5089214;28;20228;-83
2021/10/25 04:02:26;;;;;;;2.20;1.77;;;;;;;;;;5088130;28;20283;-82
2021/10/25 04:13:38;;;;;;;3.65;2.55;;;;;;;;;;5089867;28;20180;-82
2021/10/25 04:27:24;;;;;;;3.42;2.70;;;;;;;;;;5078369;28;20215;-83
2021/10/25 04:30:00;;;;;;;3.40;3.10;;;;;;;;;;5079208;28;20190;-83
2021/10/25 04:32:27;;;;;;;2.97;2.75;;;;;;;;;;5078375;28;20622;-83
2021/10/25 04:35:22;;;;;;;2.90;2.47;;;;;;;;;;5078024;28;20295;-84
2021/10/25 04:37:49;;;;;;;3.38;3.00;;;;;;;;;;5078459;28;20714;-83
2021/10/25 04:40:18;;;;;;;4.70;2.90;;;;;;;;;;5080321;28;20185;-84
2021/10/25 04:42:46;;;;;;;2.95;2.75;;;;;;;;;;5081118;28;20219;-84
2021/10/25 04:45:14;;;;;;;3.00;2.75;;;;;;;;;;5081246;28;20224;-84
2021/10/25 04:47:42;;;;;;;1.98;1.80;;;;;;;;;;5082094;28;20184;-82
2021/10/25 04:50:10;;;;;;;2.88;2.67;;;;;;;;;;5082122;28;20173;-84
2021/10/25 04:52:38;;;;;;;2.65;2.45;;;;;;;;;;5082792;28;20181;-84
2021/10/25 04:55:07;;;;;;;3.53;2.58;;;;;;;;;;5082430;28;20304;-84
2021/10/25 04:57:37;;;;;;;3.10;2.90;;;;;;;;;;5080834;28;20232;-84
2021/10/25 05:00:08;;;;;;;2.70;2.50;;;;;;;;;;5082303;28;20633;-83
2021/10/25 05:02:35;;;;;;;3.03;2.83;;;;;;;;;;5082412;28;20186;-83
2021/10/25 05:05:05;;;;;;;6.25;3.70;;;;;;;;;;5082672;28;20591;-84
2021/10/25 05:07:32;;;;;;;4.10;3.47;;;;;;;;;;5082009;28;20239;-85
2021/10/25 05:10:02;;;;;;;3.92;3.40;;;;;;;;;;5081474;28;20611;-84
2021/10/25 05:12:30;;;;;;;2.92;2.72;;;;;;;;;;5080557;28;20212;-82
2021/10/25 05:14:59;;;;;;;2.40;2.20;;;;;;;;;;5077787;28;20217;-83
2021/10/25 05:17:27;;;;;;;3.45;3.17;;;;;;;;;;5076813;28;20188;-83
2021/10/25 05:19:54;;;;;;;3.60;3.30;;;;;;;;;;5076782;28;20201;-82
2021/10/25 05:22:23;;;;;;;3.20;3.00;;;;;;;;;;5077696;28;20211;-81
2021/10/25 05:24:51;;;;;;;3.97;3.58;;;;;;;;;;5076789;28;20201;-82
2021/10/25 05:27:21;;;;;;;4.90;4.28;;;;;;;;;;5076973;28;20204;-83
2021/10/25 05:29:49;;;;;;;3.97;3.67;;;;;;;;;;5077606;28;20188;-82
2021/10/25 05:32:19;;;;;;;2.47;2.28;;;;;;;;;;5076977;28;20282;-83
2021/10/25 05:34:47;;;;;;;3.60;3.30;;;;;;;;;;5077688;28;20210;-82
2021/10/25 05:37:14;;;;;;;4.22;3.83;;;;;;;;;;5079189;28;20189;-81
2021/10/25 05:39:42;;;;;;;3.88;3.53;;;;;;;;;;5078562;28;20595;-81
2021/10/25 05:42:10;;;;;;;3.92;3.42;;;;;;;;;;5078930;28;20189;-83
2021/10/25 05:44:38;;;;;;;3.00;2.80;;;;;;;;;;5079067;28;20234;-81
2021/10/25 05:47:06;;;;;;;3.78;3.47;;;;;;;;;;5078480;28;20188;-82
2021/10/25 05:49:36;;;;;;;5.45;3.88;;;;;;;;;;5079885;28;20205;-83
2021/10/25 05:52:04;;;;;;;3.08;2.88;;;;;;;;;;5080854;28;20592;-83
2021/10/25 05:54:31;;;;;;;3.88;3.33;;;;;;;;;;5081738;28;20244;-83
2021/10/25 05:56:59;;;;;;;4.57;3.97;;;;;;;;;;5080615;28;20201;-83
2021/10/25 05:59:27;;;;;;;4.05;3.65;;;;;;;;;;5081967;28;20790;-82
2021/10/25 06:02:01;;;;;;;3.15;2.85;;;;;;;;;;5082110;28;20221;-81
2021/10/25 06:04:28;;;;;;;4.22;3.83;;;;;;;;;;5081322;28;20633;-83
2021/10/25 06:06:57;;;;;;;3.58;3.20;;;;;;;;;;5081576;28;20307;-84
2021/10/25 06:09:27;;;;;;;5.00;3.47;;;;;;;;;;5081218;28;20209;-82
2021/10/25 06:11:55;;;;;;;3.38;3.08;;;;;;;;;;5079915;28;20271;-83
2021/10/25 06:14:29;;;;;;;4.07;3.10;;;;;;;;;;5080333;28;20205;-83
2021/10/25 06:16:59;;;;;;;3.55;3.03;;;;;;;;;;5071124;28;20220;-82
2021/10/25 06:19:27;;;;;;;3.60;3.30;;;;;;;;;;5071118;28;20264;-82
2021/10/25 06:21:54;;;;;;;3.53;3.08;;;;;;;;;;5069293;28;20211;-82
2021/10/25 06:24:23;;;;;;;3.90;3.60;;;;;;;;;;5068254;28;20217;-81
2021/10/25 06:26:50;;;;;;;3.90;3.50;;;;;;;;;;5061865;28;20244;-83
2021/10/25 06:29:18;;;;;;;3.22;2.90;;;;;;;;;;5061111;28;20212;-82
2021/10/25 06:31:46;;;;;;;4.03;3.72;;;;;;;;;;5060970;28;20240;-81
2021/10/25 06:34:20;;;;;;;5.28;4.15;;;;;;;;;;5060506;28;20225;-83
2021/10/25 06:36:51;;;;;;;5.88;4.38;;;;;;;;;;5060316;28;20308;-82
2021/10/25 06:39:23;;;;;;;3.83;3.53;;;;;;;;;;5059054;28;20206;-82
2021/10/25 06:41:52;;;;;;;3.47;3.22;;;;;;;;;;5062194;28;20193;-82
2021/10/25 06:44:19;;;;;;;6.85;4.45;;;;;;;;;;5062205;28;20265;-83
2021/10/25 06:46:47;;;;;;;5.65;4.32;;;;;;;;;;5070878;28;20673;-84
2021/10/25 06:49:14;;;;;;;5.53;3.85;;;;;;;;;;5084036;28;20621;-82
2021/10/25 06:51:42;;;;;;;3.92;3.63;;;;;;;;;;5083424;28;20201;-84
2021/10/25 06:54:10;;;;;;;3.58;3.28;;;;;;;;;;5083432;28;20193;-82
2021/10/25 06:56:38;;;;;;;4.22;3.83;;;;;;;;;;5081997;28;20225;-84
2021/10/25 06:59:06;;;;;;;4.15;3.75;;;;;;;;;;5082553;28;20235;-83
2021/10/25 07:01:34;;;;;;;3.75;3.53;;;;;;;;;;5083128;28;20185;-84
2021/10/25 07:04:01;;;;;;;2.42;2.22;;;;;;;;;;5080616;28;20553;-83
2021/10/25 07:06:31;;;;;;;2.63;2.42;;;;;;;;;;5078467;28;20209;-81
2021/10/25 07:09:00;;;;;;;2.95;2.65;;;;;;;;;;5087344;28;20204;-83
2021/10/25 07:11:29;;;;;;;4.38;4.03;;;;;;;;;;5077493;28;20199;-83
2021/10/25 07:13:56;;;;;;;5.03;2.97;;;;;;;;;;5078849;28;20233;-82
2021/10/25 07:16:29;;;;;;;4.85;4.38;;;;;;;;;;5076703;28;20213;-84
2021/10/25 07:22:09;;;;;;;6.57;5.50;;;;;;;;;;5060016;28;20280;-86
2021/10/25 08:00:53;;;;;;;8.27;6.32;;;;;;;;;;5098163;28;20226;-81
2021/10/25 08:03:50;;;;;;;7.75;6.78;;;;;;;;;;5078969;28;20193;-84
2021/10/25 08:06:24;;;;;;;7.18;6.47;;;;;;;;;;5086840;28;20700;-83
2021/10/25 08:09:00;;;;;;;7.35;6.70;;;;;;;;;;5087909;28;20246;-83
2021/10/25 08:11:36;;;;;;;7.10;6.45;;;;;;;;;;5088416;28;20254;-85
2021/10/25 08:14:06;;;;;;;7.00;5.13;;;;;;;;;;5092659;28;20193;-84
2021/10/25 08:16:43;;;;;;;9.25;7.30;;;;;;;;;;5082685;28;20623;-84
2021/10/25 08:19:23;;;;;;;6.63;5.68;;;;;;;;;;5078764;28;20254;-85
2021/10/25 08:21:53;;;;;;;6.72;6.03;;;;;;;;;;5079237;28;20684;-82
2021/10/25 08:24:20;;;;;;;6.78;5.95;;;;;;;;;;5057668;28;20615;-82
2021/10/25 08:26:49;;;;;;;6.97;6.32;;;;;;;;;;5057168;28;20230;-83
2021/10/25 08:29:19;;;;;;;6.00;5.50;;;;;;;;;;5058135;28;20343;-84
2021/10/25 08:31:54;;;;;;;7.70;6.93;;;;;;;;;;5059664;28;20254;-84
2021/10/25 08:34:32;;;;;;;7.05;6.35;;;;;;;;;;5067019;28;20189;-84
2021/10/25 08:39:50;;;;;;;6.07;5.47;;;;;;;;;;5098472;28;20223;-84
2021/10/25 08:42:20;;;;;;;7.93;7.22;;;;;;;;;;5098386;28;20212;-84
2021/10/25 08:44:53;;;;;;;6.28;5.68;;;;;;;;;;5098347;28;20191;-84
2021/10/25 08:47:24;;;;;;;7.35;5.95;;;;;;;;;;5098678;28;20277;-84
2021/10/25 08:49:52;;;;;;;7.20;6.50;;;;;;;;;;5096583;28;20585;-85
2021/10/25 08:52:25;;;;;;;7.55;6.80;;;;;;;;;;5084673;28;20228;-84
2021/10/25 08:54:54;;;;;;;8.20;6.90;;;;;;;;;;5080081;28;20193;-84
2021/10/25 08:57:22;;;;;;;6.63;5.88;;;;;;;;;;5077588;28;20272;-83
2021/10/25 08:59:59;;;;;;;5.35;4.95;;;;;;;;;;5074848;28;20246;-83
2021/10/25 09:02:29;;;;;;;6.93;6.32;;;;;;;;;;5075072;28;20233;-84
2021/10/25 09:05:05;;;;;;;5.70;5.20;;;;;;;;;;5074572;28;20221;-83
2021/10/25 09:07:48;;;;;;;5.93;5.32;;;;;;;;;;5075175;28;20193;-83
2021/10/25 09:10:23;;;;;;;6.72;5.45;;;;;;;;;;5089887;28;20185;-83
2021/10/25 09:12:55;;;;;;;8.80;7.55;;;;;;;;;;5075376;28;20199;-84
2021/10/25 09:15:25;;;;;;;7.78;6.80;;;;;;;;;;5075894;28;20228;-83
2021/10/25 09:17:53;;;;;;;4.75;4.35;;;;;;;;;;5076980;28;20193;-85
2021/10/25 09:20:21;;;;;;;5.25;4.75;;;;;;;;;;5075682;28;20217;-83
2021/10/25 09:22:53;;;;;;;8.18;6.85;;;;;;;;;;5075537;28;20573;-84
2021/10/25 09:25:20;;;;;;;8.20;6.97;;;;;;;;;;5084898;22;20217;-83
2021/10/25 09:27:48;;;;;;;5.68;5.15;;;;;;;;;;4975616;28;20227;-82
2021/10/25 09:30:20;;;;;;;6.18;5.57;;;;;;;;;;4985543;28;20207;-82
2021/10/25 09:32:48;;;;;;;5.63;4.97;;;;;;;;;;4991359;28;20195;-83
2021/10/25 09:35:21;;;;;;;7.07;6.47;;;;;;;;;;4991177;28;20188;-83
2021/10/25 09:37:59;;;;;;;6.38;5.78;;;;;;;;;;4979870;28;20287;-82
2021/10/25 09:40:35;;;;;;;5.82;4.97;;;;;;;;;;4972141;28;20215;-83
2021/10/25 09:43:18;;;;;;;8.20;5.63;;;;;;;;;;4971738;28;20205;-83
2021/10/25 09:45:55;;;;;;;4.72;4.32;;;;;;;;;;4971630;28;20223;-82
2021/10/25 09:51:09;;;;;;;5.22;4.78;;;;;;;;;;4990556;28;20186;-84
2021/10/25 09:53:43;;;;;;;5.68;5.18;;;;;;;;;;4990492;28;20192;-83
2021/10/25 09:56:14;;;;;;;6.95;6.32;;;;;;;;;;4991229;28;20231;-83
2021/10/25 09:58:55;;;;;;;7.40;6.70;;;;;;;;;;4990289;28;20203;-84
2021/10/25 10:01:27;;;;;;;5.65;5.15;;;;;;;;;;4989848;28;20594;-83
2021/10/25 10:03:55;;;;;;;5.95;5.07;;;;;;;;;;4990554;28;20739;-84
2021/10/25 10:06:23;;;;;;;5.28;4.78;;;;;;;;;;4990226;28;20224;-83
2021/10/25 10:08:53;;;;;;;4.80;4.30;;;;;;;;;;4989814;28;20192;-85
2021/10/25 10:11:21;;;;;;;4.13;3.80;;;;;;;;;;4991159;28;20195;-84
2021/10/25 10:13:49;;;;;;;5.15;4.60;;;;;;;;;;4991880;28;20204;-83
2021/10/25 10:16:17;;;;;;;3.75;3.45;;;;;;;;;;4973217;28;20716;-84
2021/10/25 10:18:48;;;;;;;4.30;3.92;;;;;;;;;;4971840;28;20668;-84
2021/10/25 10:21:16;;;;;;;6.75;6.10;;;;;;;;;;4973519;28;20216;-83
2021/10/25 10:23:50;;;;;;;6.55;5.90;;;;;;;;;;4973312;28;20195;-83
2021/10/25 10:26:19;;;;;;;6.30;5.70;;;;;;;;;;4973215;28;20703;-82
2021/10/25 10:28:50;;;;;;;7.50;6.88;;;;;;;;;;4972530;28;20212;-83
2021/10/25 10:31:20;;;;;;;7.80;7.00;;;;;;;;;;4973058;28;20204;-83
2021/10/25 10:33:51;;;;;;;8.40;7.50;;;;;;;;;;4973839;28;20230;-84
2021/10/25 10:36:22;;;;;;;7.78;6.35;;;;;;;;;;4974656;28;20224;-83
2021/10/25 10:38:53;;;;;;;8.18;6.05;;;;;;;;;;4973555;28;20601;-85
2021/10/25 10:41:36;;;;;;;5.70;5.20;;;;;;;;;;4973299;28;20901;-84
2021/10/25 10:44:06;;;;;;;6.93;6.25;;;;;;;;;;4973864;28;20231;-84
2021/10/25 10:46:46;;;;;;;8.15;7.38;;;;;;;;;;4973462;28;20236;-82
2021/10/25 10:49:23;;;;;;;8.55;7.55;;;;;;;;;;4973280;28;20200;-82
2021/10/25 10:52:25;;;;;;;7.55;6.63;;;;;;;;;;4970098;28;20578;-84
2021/10/25 10:55:00;;;;;;;7.35;6.45;;;;;;;;;;4970028;28;20199;-83
2021/10/25 11:00:40;;;;;;;8.65;7.85;;;;;;;;;;4969780;28;20207;-84
2021/10/25 11:03:23;;;;;;;8.93;8.02;;;;;;;;;;4970082;28;20189;-83
2021/10/25 11:05:59;;;;;;;10.68;8.45;;;;;;;;;;4970878;28;20236;-84
2021/10/25 11:08:32;;;;;;;10.63;9.52;;;;;;;;;;4970812;28;20562;-83
2021/10/25 11:11:03;;;;;;;9.38;8.52;;;;;;;;;;4971120;28;20200;-82
2021/10/25 11:13:36;;;;;;;10.23;8.32;;;;;;;;;;4970236;28;20220;-82
2021/10/25 11:16:07;;;;;;;8.40;7.53;;;;;;;;;;4970399;28;20228;-82
2021/10/25 11:18:38;;;;;;;12.70;8.52;;;;;;;;;;4971616;28;20675;-83
2021/10/25 11:21:19;;;;;;;10.57;8.95;;;;;;;;;;4975697;28;20234;-82
2021/10/25 11:23:52;;;;;;;9.32;8.43;;;;;;;;;;4976222;28;20204;-83
2021/10/25 11:26:22;;;;;;;8.82;7.93;;;;;;;;;;4975543;28;20239;-83
2021/10/25 11:29:08;;;;;;;6.50;5.85;;;;;;;;;;4976516;28;20205;-84
2021/10/25 11:31:38;;;;;;;8.48;7.13;;;;;;;;;;4979108;28;20261;-83
2021/10/25 11:34:14;;;;;;;6.10;5.50;;;;;;;;;;4979803;28;20291;-84
2021/10/25 11:36:56;;;;;;;6.18;4.82;;;;;;;;;;4974183;28;20274;-83
2021/10/25 11:39:37;;;;;;;7.50;6.72;;;;;;;;;;4973386;28;20200;-83
2021/10/25 11:42:10;;;;;;;6.93;6.13;;;;;;;;;;4974241;28;20224;-85
2021/10/25 11:44:40;;;;;;;7.03;4.60;;;;;;;;;;4972454;28;20185;-84
2021/10/25 11:47:20;;;;;;;6.25;5.55;;;;;;;;;;4973202;28;20220;-83
2021/10/25 11:49:48;;;;;;;6.55;5.85;;;;;;;;;;4973773;28;20211;-84
2021/10/25 11:52:16;;;;;;;7.22;6.47;;;;;;;;;;4973546;28;20188;-83
2021/10/25 11:54:52;;;;;;;5.95;5.35;;;;;;;;;;4973880;28;20258;-83
2021/10/25 11:57:21;;;;;;;7.35;6.30;;;;;;;;;;4972913;28;20228;-84
2021/10/25 12:00:02;;;;;;;5.72;5.10;;;;;;;;;;4974600;28;20215;-84
2021/10/25 12:02:30;;;;;;;5.45;4.95;;;;;;;;;;4975902;28;20212;-83
2021/10/25 12:04:58;;;;;;;7.40;5.55;;;;;;;;;;4975537;28;20213;-83
2021/10/25 12:07:25;;;;;;;6.65;5.90;;;;;;;;;;4974776;28;20235;-84
2021/10/25 12:10:01;;;;;;;6.43;5.70;;;;;;;;;;4975871;28;20208;-83
2021/10/25 12:12:29;;;;;;;5.63;4.97;;;;;;;;;;4975394;28;20682;-83
2021/10/25 12:14:59;;;;;;;6.82;5.57;;;;;;;;;;4975667;28;20558;-83
2021/10/25 12:17:36;;;;;;;7.35;5.53;;;;;;;;;;4975960;28;20235;-84
2021/10/25 12:20:07;;;;;;;6.88;5.72;;;;;;;;;;4975639;28;20709;-83
2021/10/25 12:22:35;;;;;;;7.82;5.78;;;;;;;;;;4974800;28;20227;-85
2021/10/25 12:25:03;;;;;;;6.13;4.90;;;;;;;;;;4976077;28;20239;-84
2021/10/25 12:27:36;;;;;;;3.95;3.65;;;;;;;;;;4975835;28;20711;-83
2021/10/25 12:30:08;;;;;;;6.20;5.47;;;;;;;;;;4976279;28;20189;-84
2021/10/25 12:32:53;;;;;;;6.07;5.55;;;;;;;;;;4976536;28;20262;-83
2021/10/25 12:35:38;;;;;;;5.13;4.55;;;;;;;;;;4976259;28;20590;-83
2021/10/25 12:38:09;;;;;;;5.45;4.75;;;;;;;;;;4976378;28;20246;-84
2021/10/25 12:40:43;;;;;;;7.30;5.25;;;;;;;;;;4975041;28;20215;-84
2021/10/25 12:43:11;;;;;;;5.45;4.80;;;;;;;;;;4975852;28;20219;-84
2021/10/25 12:45:44;;;;;;;7.13;5.05;;;;;;;;;;4975517;28;20220;-83
2021/10/25 12:48:15;;;;;;;5.10;4.60;;;;;;;;;;4977047;28;20184;-83
2021/10/25 12:50:48;;;;;;;5.28;4.22;;;;;;;;;;4976136;28;20248;-84
2021/10/25 12:53:16;;;;;;;5.13;4.63;;;;;;;;;;4976947;28;20196;-83
2021/10/25 12:55:56;;;;;;;5.28;4.78;;;;;;;;;;4975994;28;20228;-85
2021/10/25 12:58:24;;;;;;;4.95;4.38;;;;;;;;;;4976107;28;20212;-83
2021/10/25 13:00:53;;;;;;;4.10;3.70;;;;;;;;;;4975750;28;20189;-84
2021/10/25 13:03:29;;;;;;;4.97;3.72;;;;;;;;;;4974105;28;20676;-85
2021/10/25 13:06:06;;;;;;;3.70;3.40;;;;;;;;;;4974788;28;20235;-85
2021/10/25 13:08:34;;;;;;;3.60;3.03;;;;;;;;;;4974242;28;20189;-84
2021/10/25 13:11:03;;;;;;;2.70;2.50;;;;;;;;;;4973103;28;20188;-86
2021/10/25 13:13:32;;;;;;;3.53;3.15;;;;;;;;;;4972552;28;20755;-85
2021/10/25 13:16:00;;;;;;;3.15;2.88;;;;;;;;;;4972808;28;20290;-84
2021/10/25 13:18:29;;;;;;;4.40;3.40;;;;;;;;;;4974076;28;20200;-84
2021/10/25 13:20:58;;;;;;;3.00;2.80;;;;;;;;;;4974182;28;20208;-84
2021/10/25 13:23:25;;;;;;;3.20;2.83;;;;;;;;;;4974124;28;20215;-84
2021/10/25 13:25:53;;;;;;;4.70;2.72;;;;;;;;;;4976723;28;20236;-84
2021/10/25 13:28:21;;;;;;;3.45;2.78;;;;;;;;;;4975262;28;20208;-84
2021/10/25 13:30:49;;;;;;;3.85;2.40;;;;;;;;;;4977767;28;20192;-85
2021/10/25 13:33:16;;;;;;;3.53;2.85;;;;;;;;;;4979386;28;20204;-84
2021/10/25 13:35:45;;;;;;;2.88;2.67;;;;;;;;;;4979230;28;20224;-84
2021/10/25 13:38:12;;;;;;;4.05;3.35;;;;;;;;;;4979111;28;20193;-84
2021/10/25 13:40:40;;;;;;;4.38;3.95;;;;;;;;;;4976529;28;20212;-84
2021/10/25 13:43:08;;;;;;;4.47;3.80;;;;;;;;;;4977542;28;20234;-84
2021/10/25 13:45:35;;;;;;;3.75;3.25;;;;;;;;;;4977295;28;20224;-84
2021/10/25 13:48:03;;;;;;;5.10;4.65;;;;;;;;;;4978599;28;20196;-84
2021/10/25 13:50:31;;;;;;;5.05;3.92;;;;;;;;;;4977053;28;20204;-84
2021/10/25 13:53:00;;;;;;;3.75;3.45;;;;;;;;;;4976891;28;20189;-84
2021/10/25 13:55:28;;;;;;;3.88;3.58;;;;;;;;;;4976300;28;20228;-84
2021/10/25 13:57:57;;;;;;;3.90;3.53;;;;;;;;;;4972863;28;20272;-85
2021/10/25 14:00:24;;;;;;;3.22;3.00;;;;;;;;;;4971462;28;20201;-85
2021/10/25 14:02:54;;;;;;;3.30;3.00;;;;;;;;;;4972507;28;20585;-85
2021/10/25 14:05:23;;;;;;;3.97;3.17;;;;;;;;;;4972109;28;20704;-84
2021/10/25 14:07:50;;;;;;;3.25;2.90;;;;;;;;;;4973747;28;20305;-84
2021/10/25 14:10:23;;;;;;;4.15;3.72;;;;;;;;;;4974417;28;20189;-84
2021/10/25 14:12:52;;;;;;;3.15;2.85;;;;;;;;;;4974484;28;20185;-84
2021/10/25 14:15:26;;;;;;;2.50;2.30;;;;;;;;;;4974894;28;20644;-83
2021/10/25 14:17:56;;;;;;;2.85;2.63;;;;;;;;;;4973221;28;20192;-83
2021/10/25 14:20:27;;;;;;;3.00;2.75;;;;;;;;;;4972200;28;20291;-84
2021/10/25 14:22:57;;;;;;;3.17;2.88;;;;;;;;;;4971635;28;20648;-85
2021/10/25 14:25:26;;;;;;;2.35;2.15;;;;;;;;;;4971912;28;20239;-84
2021/10/25 14:27:53;;;;;;;2.33;2.13;;;;;;;;;;4971584;28;20216;-84
2021/10/25 14:30:22;;;;;;;2.65;2.45;;;;;;;;;;4971678;28;20188;-84
2021/10/25 14:32:50;;;;;;;2.63;2.22;;;;;;;;;;4971858;28;20181;-84
2021/10/25 14:35:18;;;;;;;2.60;2.40;;;;;;;;;;4971503;28;20238;-83
2021/10/25 14:37:46;;;;;;;2.85;2.58;;;;;;;;;;4971216;28;20547;-85
2021/10/25 14:40:16;;;;;;;3.15;2.47;;;;;;;;;;4971486;28;20231;-85
2021/10/25 14:42:52;;;;;;;2.67;2.47;;;;;;;;;;4971118;28;20195;-83
2021/10/25 14:45:22;;;;;;;2.83;2.60;;;;;;;;;;4970806;28;20204;-83
2021/10/25 14:53:23;;;;;;;2.65;2.45;;;;;;;;;;4971313;28;20203;-84
2021/10/25 14:55:59;;;;;;;3.40;2.35;;;;;;;;;;4972193;28;20256;-84
2021/10/25 14:58:30;;;;;;;2.38;2.00;;;;;;;;;;4972358;28;20270;-84
2021/10/25 15:00:58;;;;;;;1.88;1.77;;;;;;;;;;4971749;28;20678;-84
2021/10/25 15:03:26;;;;;;;2.20;2.10;;;;;;;;;;4971792;28;20590;-85
2021/10/25 15:05:55;;;;;;;2.20;2.00;;;;;;;;;;4972788;28;20231;-85
2021/10/25 15:08:23;;;;;;;1.63;1.52;;;;;;;;;;4971343;28;20250;-82
2021/10/25 15:10:51;;;;;;;1.80;1.70;;;;;;;;;;4970645;28;20675;-84
2021/10/25 15:13:19;;;;;;;1.90;1.77;;;;;;;;;;4971122;28;20189;-84
2021/10/25 15:15:49;;;;;;;1.98;1.80;;;;;;;;;;4970319;28;20223;-84
2021/10/25 15:18:17;;;;;;;1.73;1.63;;;;;;;;;;4971014;28;20195;-83
2021/10/25 15:20:45;;;;;;;1.75;1.65;;;;;;;;;;4970981;28;20212;-83
2021/10/25 15:23:12;;;;;;;2.60;2.20;;;;;;;;;;4970750;28;20196;-83
2021/10/25 15:25:42;;;;;;;2.05;1.83;;;;;;;;;;5007258;22;20232;-83
2021/10/25 15:28:10;;;;;;;1.90;1.80;;;;;;;;;;5113786;28;20219;-85
2021/10/25 15:30:41;;;;;;;1.88;1.77;;;;;;;;;;5114798;28;20203;-83
2021/10/25 15:33:10;;;;;;;2.13;1.60;;;;;;;;;;5114272;28;20200;-84
2021/10/25 15:35:37;;;;;;;1.80;1.70;;;;;;;;;;5113491;28;20267;-83
2021/10/25 15:38:05;;;;;;;1.90;1.80;;;;;;;;;;5114143;28;20188;-84
2021/10/25 15:40:33;;;;;;;1.83;1.50;;;;;;;;;;5103806;28;20208;-84
2021/10/25 15:43:00;;;;;;;1.90;1.80;;;;;;;;;;5095778;28;20271;-82
2021/10/25 15:45:28;;;;;;;2.10;1.92;;;;;;;;;;5092437;28;20221;-84
2021/10/25 15:47:55;;;;;;;1.80;1.70;;;;;;;;;;5092194;28;20290;-82
2021/10/25 15:50:24;;;;;;;2.10;1.90;;;;;;;;;;5091087;28;20207;-84
2021/10/25 15:52:52;;;;;;;2.10;1.50;;;;;;;;;;5099421;28;20203;-82
2021/10/25 15:55:19;;;;;;;1.70;1.60;;;;;;;;;;5071206;28;20219;-81
2021/10/25 15:57:50;;;;;;;2.30;2.10;;;;;;;;;;5072406;28;20294;-84
2021/10/25 16:00:18;;;;;;;3.70;2.10;;;;;;;;;;5071950;28;20209;-83
2021/10/25 16:02:47;;;;;;;2.25;1.95;;;;;;;;;;5072362;28;20182;-83
2021/10/25 16:05:15;;;;;;;1.80;1.70;;;;;;;;;;5071558;28;20292;-83
2021/10/25 16:07:44;;;;;;;2.35;2.15;;;;;;;;;;5071725;28;20231;-82
2021/10/25 16:10:14;;;;;;;1.88;1.77;;;;;;;;;;5071370;28;20205;-84
2021/10/25 16:12:42;;;;;;;1.73;1.60;;;;;;;;;;5071981;28;20502;-84
2021/10/25 16:15:10;;;;;;;1.90;1.70;;;;;;;;;;5073687;28;20197;-82
2021/10/25 16:17:38;;;;;;;2.17;1.92;;;;;;;;;;5075307;28;20225;-84
2021/10/25 16:20:07;;;;;;;1.98;1.88;;;;;;;;;;5078277;28;20189;-84
2021/10/25 16:22:34;;;;;;;2.72;2.03;;;;;;;;;;5095483;28;20192;-82
2021/10/25 16:25:03;;;;;;;1.65;1.55;;;;;;;;;;5092684;28;20241;-83
2021/10/25 16:27:31;;;;;;;1.70;1.60;;;;;;;;;;5091252;28;20236;-81
2021/10/25 16:29:59;;;;;;;3.33;2.60;;;;;;;;;;5095603;28;20180;-82
2021/10/25 16:32:26;;;;;;;2.75;2.17;;;;;;;;;;5095674;28;20656;-82
2021/10/25 16:34:53;;;;;;;1.80;1.70;;;;;;;;;;5086440;28;20197;-82
2021/10/25 16:37:21;;;;;;;2.08;1.80;;;;;;;;;;5074493;28;20217;-83
2021/10/25 16:39:48;;;;;;;2.08;1.60;;;;;;;;;;5074629;28;20354;-84
2021/10/25 16:42:17;;;;;;;2.10;1.98;;;;;;;;;;5074584;28;20186;-82
2021/10/25 16:44:47;;;;;;;2.53;2.33;;;;;;;;;;5074349;28;20205;-84
2021/10/25 16:47:15;;;;;;;4.35;3.40;;;;;;;;;;5074499;28;20221;-81
2021/10/25 16:49:43;;;;;;;2.70;2.50;;;;;;;;;;5074236;28;20181;-83
2021/10/25 16:52:19;;;;;;;2.95;2.25;;;;;;;;;;5074657;28;20247;-82